sensor_id;sensor_type;location;lat;lon;timestamp;pressure;altitude;pressure_sealevel;temperature;humidity
65175;BME280;51761;42.126;24.752;2023-03-03T00:02:00;99984.88;;;6.30;97.63
65175;BME280;51761;42.126;24.752;2023-03-03T00:04:26;99925.59;;;5.95;97.32
65175;BME280;51761;42.126;24.752;2023-03-03T00:06:51;99974.63;;;6.37;97.35
65175;BME280;51761;42.126;24.752;2023-03-03T00:09:17;99969.06;;;6.34;96.92
65175;BME280;51761;42.126;24.752;2023-03-03T00:11:42;99973.09;;;6.47;95.64
65175;BME280;51761;42.126;24.752;2023-03-03T00:14:21;99947.25;;;6.32;95.34
65175;BME280;51761;42.126;24.752;2023-03-03T00:16:48;99937.72;;;6.33;94.93
65175;BME280;51761;42.126;24.752;2023-03-03T00:19:17;99954.91;;;6.56;94.60
65175;BME280;51761;42.126;24.752;2023-03-03T00:21:50;99950.16;;;6.53;95.03
65175;BME280;51761;42.126;24.752;2023-03-03T00:24:24;99946.59;;;6.56;94.28
65175;BME280;51761;42.126;24.752;2023-03-03T00:27:00;99921.56;;;6.46;94.63
65175;BME280;51761;42.126;24.752;2023-03-03T00:29:35;99920.44;;;6.54;94.75
65175;BME280;51761;42.126;24.752;2023-03-03T00:34:34;99917.63;;;6.50;93.85
65175;BME280;51761;42.126;24.752;2023-03-03T00:37:00;99922.81;;;6.55;93.34
65175;BME280;51761;42.126;24.752;2023-03-03T00:39:35;99918.03;;;6.52;93.54
65175;BME280;51761;42.126;24.752;2023-03-03T00:42:11;99884.31;;;6.47;93.15
65175;BME280;51761;42.126;24.752;2023-03-03T00:44:57;99894.28;;;6.55;93.50
65175;BME280;51761;42.126;24.752;2023-03-03T00:47:24;99904.66;;;6.68;92.71
65175;BME280;51761;42.126;24.752;2023-03-03T00:49:55;99894.69;;;6.57;92.29
65175;BME280;51761;42.126;24.752;2023-03-03T00:52:26;99907.03;;;6.73;91.84
65175;BME280;51761;42.126;24.752;2023-03-03T00:54:53;99911.00;;;6.72;92.03
65175;BME280;51761;42.126;24.752;2023-03-03T00:57:18;99901.88;;;6.72;91.57
65175;BME280;51761;42.126;24.752;2023-03-03T00:59:44;99895.53;;;6.71;91.44
65175;BME280;51761;42.126;24.752;2023-03-03T01:02:09;99901.88;;;6.72;91.40
65175;BME280;51761;42.126;24.752;2023-03-03T01:04:35;99882.81;;;6.63;91.40
65175;BME280;51761;42.126;24.752;2023-03-03T01:07:00;99898.28;;;6.61;91.90
65175;BME280;51761;42.126;24.752;2023-03-03T01:09:26;99888.31;;;6.56;91.71
65175;BME280;51761;42.126;24.752;2023-03-03T01:11:52;99885.56;;;6.56;91.67
65175;BME280;51761;42.126;24.752;2023-03-03T01:14:17;99870.44;;;6.47;91.91
65175;BME280;51761;42.126;24.752;2023-03-03T01:16:43;99893.53;;;6.65;92.29
65175;BME280;51761;42.126;24.752;2023-03-03T01:19:08;99871.69;;;6.53;92.34
65175;BME280;51761;42.126;24.752;2023-03-03T01:21:34;99893.94;;;6.74;90.79
65175;BME280;51761;42.126;24.752;2023-03-03T01:23:59;99882.03;;;6.63;90.66
65175;BME280;51761;42.126;24.752;2023-03-03T01:26:25;99868.47;;;6.51;91.18
65175;BME280;51761;42.126;24.752;2023-03-03T01:28:50;99897.91;;;6.73;90.94
65175;BME280;51761;42.126;24.752;2023-03-03T01:31:16;99899.50;;;6.74;91.10
65175;BME280;51761;42.126;24.752;2023-03-03T01:33:42;99874.50;;;6.67;89.89
65175;BME280;51761;42.126;24.752;2023-03-03T01:36:07;99865.34;;;6.56;90.06
65175;BME280;51761;42.126;24.752;2023-03-03T01:38:37;99893.16;;;6.77;90.26
65175;BME280;51761;42.126;24.752;2023-03-03T01:41:03;99899.47;;;6.67;90.91
65175;BME280;51761;42.126;24.752;2023-03-03T01:43:31;99898.69;;;6.66;90.51
65175;BME280;51761;42.126;24.752;2023-03-03T01:48:41;99890.38;;;6.66;90.32
65175;BME280;51761;42.126;24.752;2023-03-03T01:51:31;99882.44;;;6.68;90.45
65175;BME280;51761;42.126;24.752;2023-03-03T01:54:04;99877.69;;;6.69;90.24
65175;BME280;51761;42.126;24.752;2023-03-03T01:56:31;99881.25;;;6.69;90.34
65175;BME280;51761;42.126;24.752;2023-03-03T01:59:00;99878.09;;;6.67;89.91
65175;BME280;51761;42.126;24.752;2023-03-03T02:01:28;99873.34;;;6.78;89.12
65175;BME280;51761;42.126;24.752;2023-03-03T02:03:56;99869.38;;;6.76;88.76
65175;BME280;51761;42.126;24.752;2023-03-03T02:06:25;99873.78;;;6.84;88.49
65175;BME280;51761;42.126;24.752;2023-03-03T02:11:41;99865.88;;;6.93;87.40
65175;BME280;51761;42.126;24.752;2023-03-03T02:14:10;99857.91;;;6.81;87.45
65175;BME280;51761;42.126;24.752;2023-03-03T02:16:36;99864.66;;;6.94;86.72
65175;BME280;51761;42.126;24.752;2023-03-03T02:19:04;99857.53;;;6.93;87.13
65175;BME280;51761;42.126;24.752;2023-03-03T02:21:34;99863.09;;;6.93;87.36
65175;BME280;51761;42.126;24.752;2023-03-03T02:24:05;99863.84;;;6.83;87.90
65175;BME280;51761;42.126;24.752;2023-03-03T02:26:35;99855.94;;;6.85;86.95
65175;BME280;51761;42.126;24.752;2023-03-03T02:29:01;99863.88;;;6.93;86.66
65175;BME280;51761;42.126;24.752;2023-03-03T02:31:28;99855.13;;;6.81;87.59
65175;BME280;51761;42.126;24.752;2023-03-03T02:33:54;99861.50;;;6.92;86.99
65175;BME280;51761;42.126;24.752;2023-03-03T02:36:25;99862.28;;;6.96;86.32
65175;BME280;51761;42.126;24.752;2023-03-03T02:39:12;99846.06;;;7.01;86.28
65175;BME280;51761;42.126;24.752;2023-03-03T02:44:12;99837.72;;;7.05;87.29
65175;BME280;51761;42.126;24.752;2023-03-03T02:46:44;99867.50;;;7.15;87.45
65175;BME280;51761;42.126;24.752;2023-03-03T02:49:12;99861.16;;;7.18;87.41
65175;BME280;51761;42.126;24.752;2023-03-03T02:51:39;99830.19;;;7.09;87.70
65175;BME280;51761;42.126;24.752;2023-03-03T02:54:05;99846.88;;;7.23;87.31
65175;BME280;51761;42.126;24.752;2023-03-03T02:56:31;99862.75;;;7.29;87.20
65175;BME280;51761;42.126;24.752;2023-03-03T02:58:57;99863.94;;;7.35;85.99
65175;BME280;51761;42.126;24.752;2023-03-03T03:01:23;99861.56;;;7.27;86.28
65175;BME280;51761;42.126;24.752;2023-03-03T03:03:48;99863.16;;;7.28;86.32
65175;BME280;51761;42.126;24.752;2023-03-03T03:06:14;99871.06;;;7.19;87.04
65175;BME280;51761;42.126;24.752;2023-03-03T03:08:40;99844.06;;;7.05;86.29
65175;BME280;51761;42.126;24.752;2023-03-03T03:11:05;99858.38;;;7.14;86.59
65175;BME280;51761;42.126;24.752;2023-03-03T03:13:32;99860.38;;;7.14;86.78
65175;BME280;51761;42.126;24.752;2023-03-03T03:15:58;99857.53;;;7.00;87.45
65175;BME280;51761;42.126;24.752;2023-03-03T03:18:25;99835.31;;;6.89;87.07
65175;BME280;51761;42.126;24.752;2023-03-03T03:20:51;99838.88;;;6.90;88.02
65175;BME280;51761;42.126;24.752;2023-03-03T03:23:16;99848.84;;;7.12;88.20
65175;BME280;51761;42.126;24.752;2023-03-03T03:25:42;99855.22;;;7.23;87.88
65175;BME280;51761;42.126;24.752;2023-03-03T03:28:15;99851.25;;;7.17;87.75
65175;BME280;51761;42.126;24.752;2023-03-03T03:30:42;99830.56;;;7.04;87.36
65175;BME280;51761;42.126;24.752;2023-03-03T03:33:08;99831.00;;;7.09;86.68
65175;BME280;51761;42.126;24.752;2023-03-03T03:35:35;99848.84;;;7.19;86.93
65175;BME280;51761;42.126;24.752;2023-03-03T03:38:01;99844.50;;;7.11;87.08
65175;BME280;51761;42.126;24.752;2023-03-03T03:40:27;99851.22;;;7.06;87.48
65175;BME280;51761;42.126;24.752;2023-03-03T03:42:53;99853.63;;;7.15;87.39
65175;BME280;51761;42.126;24.752;2023-03-03T03:45:18;99852.03;;;7.14;87.23
65175;BME280;51761;42.126;24.752;2023-03-03T03:47:44;99837.34;;;7.06;86.75
65175;BME280;51761;42.126;24.752;2023-03-03T03:50:09;99842.50;;;7.04;86.61
65175;BME280;51761;42.126;24.752;2023-03-03T03:52:35;99836.91;;;6.94;87.50
65175;BME280;51761;42.126;24.752;2023-03-03T03:55:00;99856.38;;;7.04;87.50
65175;BME280;51761;42.126;24.752;2023-03-03T03:57:26;99837.72;;;7.01;87.09
65175;BME280;51761;42.126;24.752;2023-03-03T03:59:52;99828.19;;;6.95;87.28
65175;BME280;51761;42.126;24.752;2023-03-03T04:02:17;99844.06;;;7.09;87.56
65175;BME280;51761;42.126;24.752;2023-03-03T04:04:43;99833.75;;;7.06;87.41
65175;BME280;51761;42.126;24.752;2023-03-03T04:07:09;99850.44;;;7.20;87.45
65175;BME280;51761;42.126;24.752;2023-03-03T04:09:34;99829.00;;;7.13;88.21
65175;BME280;51761;42.126;24.752;2023-03-03T04:12:00;99844.91;;;7.30;87.53
65175;BME280;51761;42.126;24.752;2023-03-03T04:14:26;99837.34;;;7.20;87.85
65175;BME280;51761;42.126;24.752;2023-03-03T04:16:51;99827.44;;;7.16;88.01
65175;BME280;51761;42.126;24.752;2023-03-03T04:19:17;99822.25;;;7.00;88.54
65175;BME280;51761;42.126;24.752;2023-03-03T04:21:42;99817.09;;;7.02;89.45
65175;BME280;51761;42.126;24.752;2023-03-03T04:24:08;99821.09;;;7.12;89.31
65175;BME280;51761;42.126;24.752;2023-03-03T04:26:33;99841.72;;;7.18;89.04
65175;BME280;51761;42.126;24.752;2023-03-03T04:28:59;99846.84;;;7.09;90.12
65175;BME280;51761;42.126;24.752;2023-03-03T04:31:26;99842.88;;;7.06;89.91
65175;BME280;51761;42.126;24.752;2023-03-03T04:33:51;99841.69;;;7.07;90.51
65175;BME280;51761;42.126;24.752;2023-03-03T04:36:19;99842.88;;;7.03;91.08
65175;BME280;51761;42.126;24.752;2023-03-03T04:38:45;99817.50;;;6.97;89.96
65175;BME280;51761;42.126;24.752;2023-03-03T04:41:10;99845.28;;;7.11;89.88
65175;BME280;51761;42.126;24.752;2023-03-03T04:43:37;99820.28;;;7.04;89.97
65175;BME280;51761;42.126;24.752;2023-03-03T04:46:02;99831.38;;;7.04;90.68
65175;BME280;51761;42.126;24.752;2023-03-03T04:48:28;99841.69;;;7.07;90.63
65175;BME280;51761;42.126;24.752;2023-03-03T04:50:54;99834.91;;;6.91;91.02
65175;BME280;51761;42.126;24.752;2023-03-03T04:53:20;99817.88;;;6.89;90.25
65175;BME280;51761;42.126;24.752;2023-03-03T04:55:45;99828.97;;;6.96;90.38
65175;BME280;51761;42.126;24.752;2023-03-03T04:58:11;99835.34;;;7.07;90.18
65175;BME280;51761;42.126;24.752;2023-03-03T05:00:37;99840.53;;;7.12;89.78
65175;BME280;51761;42.126;24.752;2023-03-03T05:03:03;99819.44;;;6.90;89.89
65175;BME280;51761;42.126;24.752;2023-03-03T05:05:28;99821.84;;;6.98;89.74
65175;BME280;51761;42.126;24.752;2023-03-03T05:07:53;99842.50;;;7.11;89.52
65175;BME280;51761;42.126;24.752;2023-03-03T05:10:19;99831.34;;;6.90;90.19
65175;BME280;51761;42.126;24.752;2023-03-03T05:12:45;99846.44;;;7.07;89.50
65175;BME280;51761;42.126;24.752;2023-03-03T05:15:11;99829.78;;;7.07;89.30
65175;BME280;51761;42.126;24.752;2023-03-03T05:17:36;99850.81;;;7.18;88.82
65175;BME280;51761;42.126;24.752;2023-03-03T05:20:03;99849.63;;;7.12;89.37
65175;BME280;51761;42.126;24.752;2023-03-03T05:22:30;99851.22;;;7.13;89.02
65175;BME280;51761;42.126;24.752;2023-03-03T05:24:55;99857.94;;;6.98;90.19
65175;BME280;51761;42.126;24.752;2023-03-03T05:27:22;99858.78;;;7.13;90.04
65175;BME280;51761;42.126;24.752;2023-03-03T05:29:48;99846.84;;;7.09;90.12
65175;BME280;51761;42.126;24.752;2023-03-03T05:32:13;99844.06;;;7.09;89.93
65175;BME280;51761;42.126;24.752;2023-03-03T05:34:39;99833.38;;;7.14;89.26
65175;BME280;51761;42.126;24.752;2023-03-03T05:37:04;99847.25;;;7.14;89.16
65175;BME280;51761;42.126;24.752;2023-03-03T05:39:31;99856.81;;;7.27;89.12
65175;BME280;51761;42.126;24.752;2023-03-03T05:41:57;99862.75;;;7.33;88.39
65175;BME280;51761;42.126;24.752;2023-03-03T05:44:25;99856.41;;;7.32;88.99
65175;BME280;51761;42.126;24.752;2023-03-03T05:46:50;99862.75;;;7.36;88.40
65175;BME280;51761;42.126;24.752;2023-03-03T05:49:16;99850.06;;;7.42;87.46
65175;BME280;51761;42.126;24.752;2023-03-03T05:51:41;99861.97;;;7.46;87.48
65175;BME280;51761;42.126;24.752;2023-03-03T05:54:07;99863.16;;;7.49;87.60
65175;BME280;51761;42.126;24.752;2023-03-03T05:56:33;99857.63;;;7.42;87.66
65175;BME280;51761;42.126;24.752;2023-03-03T05:58:58;99853.63;;;7.39;86.95
65175;BME280;51761;42.126;24.752;2023-03-03T06:01:24;99845.31;;;7.43;86.50
65175;BME280;51761;42.126;24.752;2023-03-03T06:03:49;99866.34;;;7.54;87.29
65175;BME280;51761;42.126;24.752;2023-03-03T06:06:14;99866.72;;;7.60;86.46
65175;BME280;51761;42.126;24.752;2023-03-03T06:08:41;99868.72;;;7.59;86.55
65175;BME280;51761;42.126;24.752;2023-03-03T06:11:07;99859.19;;;7.57;87.00
65175;BME280;51761;42.126;24.752;2023-03-03T06:13:32;99853.66;;;7.71;85.76
65175;BME280;51761;42.126;24.752;2023-03-03T06:15:57;99871.50;;;7.70;86.71
65175;BME280;51761;42.126;24.752;2023-03-03T06:18:23;99863.97;;;7.63;86.43
65175;BME280;51761;42.126;24.752;2023-03-03T06:20:53;99872.31;;;7.63;86.02
65175;BME280;51761;42.126;24.752;2023-03-03T06:23:18;99886.59;;;7.72;85.22
65175;BME280;51761;42.126;24.752;2023-03-03T06:25:44;99858.41;;;7.63;85.07
65175;BME280;51761;42.126;24.752;2023-03-03T06:28:10;99866.34;;;7.58;85.80
65175;BME280;51761;42.126;24.752;2023-03-03T06:30:37;99884.63;;;7.73;85.46
65175;BME280;51761;42.126;24.752;2023-03-03T06:33:03;99867.13;;;7.76;84.82
65175;BME280;51761;42.126;24.752;2023-03-03T06:35:28;99884.59;;;7.93;84.49
65175;BME280;51761;42.126;24.752;2023-03-03T06:37:54;99873.50;;;7.79;85.44
65175;BME280;51761;42.126;24.752;2023-03-03T06:40:19;99869.91;;;7.65;84.46
65175;BME280;51761;42.126;24.752;2023-03-03T06:42:45;99889.34;;;7.79;83.34
65175;BME280;51761;42.126;24.752;2023-03-03T06:45:11;99889.78;;;7.78;82.67
65175;BME280;51761;42.126;24.752;2023-03-03T06:47:36;99867.16;;;7.69;82.50
65175;BME280;51761;42.126;24.752;2023-03-03T06:50:02;99863.56;;;7.68;81.67
65175;BME280;51761;42.126;24.752;2023-03-03T06:52:27;99893.34;;;7.81;81.87
65175;BME280;51761;42.126;24.752;2023-03-03T06:54:55;99893.75;;;7.83;81.90
65175;BME280;51761;42.126;24.752;2023-03-03T06:57:28;99895.72;;;7.86;82.04
65175;BME280;51761;42.126;24.752;2023-03-03T07:00:05;99885.78;;;7.85;81.98
65175;BME280;51761;42.126;24.752;2023-03-03T07:02:36;99868.31;;;7.81;81.81
65175;BME280;51761;42.126;24.752;2023-03-03T07:05:06;99886.19;;;8.01;81.06
65175;BME280;51761;42.126;24.752;2023-03-03T07:07:35;99892.53;;;7.98;81.26
65175;BME280;51761;42.126;24.752;2023-03-03T07:10:06;99885.00;;;7.95;81.07
65175;BME280;51761;42.126;24.752;2023-03-03T07:12:37;99886.16;;;8.12;80.32
65175;BME280;51761;42.126;24.752;2023-03-03T07:15:23;99885.78;;;8.06;80.74
65175;BME280;51761;42.126;24.752;2023-03-03T07:17:55;99873.44;;;8.14;81.78
65175;BME280;51761;42.126;24.752;2023-03-03T07:20:31;99872.25;;;8.08;81.20
65175;BME280;51761;42.126;24.752;2023-03-03T07:22:59;99887.75;;;8.27;79.99
65175;BME280;51761;42.126;24.752;2023-03-03T07:25:31;99875.03;;;8.05;80.19
65175;BME280;51761;42.126;24.752;2023-03-03T07:28:14;99867.88;;;8.14;79.74
65175;BME280;51761;42.126;24.752;2023-03-03T07:30:44;99888.94;;;8.29;80.28
65175;BME280;51761;42.126;24.752;2023-03-03T07:33:34;99883.75;;;8.38;78.51
65175;BME280;51761;42.126;24.752;2023-03-03T07:36:01;99884.56;;;8.28;79.58
65175;BME280;51761;42.126;24.752;2023-03-03T07:38:37;99878.19;;;8.28;78.86
65175;BME280;51761;42.126;24.752;2023-03-03T07:41:12;99886.16;;;8.15;79.31
65175;BME280;51761;42.126;24.752;2023-03-03T07:43:47;99876.25;;;8.11;78.18
65175;BME280;51761;42.126;24.752;2023-03-03T07:51:44;99872.66;;;8.17;78.05
65175;BME280;51761;42.126;24.752;2023-03-03T07:57:22;99870.28;;;8.09;79.54
65175;BME280;51761;42.126;24.752;2023-03-03T07:59:53;99883.41;;;8.19;80.34
65175;BME280;51761;42.126;24.752;2023-03-03T08:02:39;99880.22;;;8.06;80.31
65175;BME280;51761;42.126;24.752;2023-03-03T08:08:28;99867.97;;;9.00;94.26
65175;BME280;51761;42.126;24.752;2023-03-03T08:10:58;99863.22;;;9.55;100.00
65175;BME280;51761;42.126;24.752;2023-03-03T08:21:12;99854.22;;;8.65;80.06
65175;BME280;51761;42.126;24.752;2023-03-03T08:23:38;99830.50;;;8.29;81.43
65175;BME280;51761;42.126;24.752;2023-03-03T08:26:04;99850.75;;;8.44;79.59
65175;BME280;51761;42.126;24.752;2023-03-03T08:28:30;99834.09;;;8.23;80.21
65175;BME280;51761;42.126;24.752;2023-03-03T08:30:55;99846.38;;;8.39;80.49
65175;BME280;51761;42.126;24.752;2023-03-03T08:33:21;99847.97;;;8.33;80.97
65175;BME280;51761;42.126;24.752;2023-03-03T08:35:47;99843.16;;;8.48;81.02
65175;BME280;51761;42.126;24.752;2023-03-03T08:38:14;99828.09;;;8.38;81.70
65175;BME280;51761;42.126;24.752;2023-03-03T08:40:41;99839.25;;;8.31;80.85
65175;BME280;51761;42.126;24.752;2023-03-03T08:43:06;99814.63;;;8.26;81.61
65175;BME280;51761;42.126;24.752;2023-03-03T08:45:33;99824.56;;;8.27;79.07
65175;BME280;51761;42.126;24.752;2023-03-03T08:47:59;99811.84;;;8.12;80.24
65175;BME280;51761;42.126;24.752;2023-03-03T08:50:27;99833.72;;;8.21;80.29
65175;BME280;51761;42.126;24.752;2023-03-03T08:52:53;99836.06;;;8.15;82.58
65175;BME280;51761;42.126;24.752;2023-03-03T08:55:18;99808.34;;;7.80;83.68
65175;BME280;51761;42.126;24.752;2023-03-03T08:57:44;99824.97;;;8.08;83.58
65175;BME280;51761;42.126;24.752;2023-03-03T09:00:12;99838.47;;;8.13;84.51
65175;BME280;51761;42.126;24.752;2023-03-03T09:02:38;99836.09;;;8.08;83.10
65175;BME280;51761;42.126;24.752;2023-03-03T09:05:05;99834.47;;;8.14;83.51
65175;BME280;51761;42.126;24.752;2023-03-03T09:07:30;99809.91;;;7.99;83.36
65175;BME280;51761;42.126;24.752;2023-03-03T09:09:56;99828.59;;;7.98;84.66
65175;BME280;51761;42.126;24.752;2023-03-03T09:12:29;99805.16;;;7.85;85.14
65175;BME280;51761;42.126;24.752;2023-03-03T09:14:57;99803.91;;;8.07;85.86
65175;BME280;51761;42.126;24.752;2023-03-03T09:17:30;99830.13;;;8.20;85.53
65175;BME280;51761;42.126;24.752;2023-03-03T09:20:00;99811.06;;;8.05;85.44
65175;BME280;51761;42.126;24.752;2023-03-03T09:22:27;99821.78;;;8.13;86.88
65175;BME280;51761;42.126;24.752;2023-03-03T09:24:56;99822.97;;;8.23;85.38
65175;BME280;51761;42.126;24.752;2023-03-03T09:27:35;99809.84;;;8.30;83.85
65175;BME280;51761;42.126;24.752;2023-03-03T09:32:48;99807.38;;;8.53;84.58
65175;BME280;51761;42.126;24.752;2023-03-03T09:38:00;99808.00;;;8.78;81.30
65175;BME280;51761;42.126;24.752;2023-03-03T09:43:36;99815.19;;;8.76;82.41
65175;BME280;51761;42.126;24.752;2023-03-03T09:46:12;99813.56;;;8.82;81.74
65175;BME280;51761;42.126;24.752;2023-03-03T09:59:54;99780.78;;;9.03;76.07
65175;BME280;51761;42.126;24.752;2023-03-03T10:11:09;99814.78;;;8.77;76.92
65175;BME280;51761;42.126;24.752;2023-03-03T10:22:23;99792.59;;;8.63;82.26
65175;BME280;51761;42.126;24.752;2023-03-03T10:28:23;99798.94;;;8.67;82.52
65175;BME280;51761;42.126;24.752;2023-03-03T10:31:26;99792.19;;;8.61;83.45
65175;BME280;51761;42.126;24.752;2023-03-03T10:39:56;99787.50;;;8.44;81.87
65175;BME280;51761;42.126;24.752;2023-03-03T10:45:39;99766.88;;;8.38;81.54
65175;BME280;51761;42.126;24.752;2023-03-03T10:51:18;99769.88;;;8.65;80.84
65175;BME280;51761;42.126;24.752;2023-03-03T10:59:09;99762.16;;;8.25;80.91
65175;BME280;51761;42.126;24.752;2023-03-03T11:09:39;99727.09;;;8.45;83.15
65175;BME280;51761;42.126;24.752;2023-03-03T11:28:10;99733.03;;;9.08;78.67
65175;BME280;51761;42.126;24.752;2023-03-03T11:30:49;99738.81;;;8.80;80.52
65175;BME280;51761;42.126;24.752;2023-03-03T11:33:43;99730.81;;;8.82;81.50
65175;BME280;51761;42.126;24.752;2023-03-03T11:36:31;99725.91;;;9.00;82.13
65175;BME280;51761;42.126;24.752;2023-03-03T11:39:08;99716.72;;;9.03;80.74
65175;BME280;51761;42.126;24.752;2023-03-03T11:41:41;99729.03;;;9.09;77.60
65175;BME280;51761;42.126;24.752;2023-03-03T12:00:02;99705.78;;;9.63;76.74
65175;BME280;51761;42.126;24.752;2023-03-03T12:08:08;99700.53;;;9.72;75.04
65175;BME280;51761;42.126;24.752;2023-03-03T12:21:50;99695.63;;;9.83;73.46
65175;BME280;51761;42.126;24.752;2023-03-03T12:27:28;99674.81;;;9.57;75.49
65175;BME280;51761;42.126;24.752;2023-03-03T12:32:41;99665.53;;;9.67;74.60
65175;BME280;51761;42.126;24.752;2023-03-03T12:35:23;99671.44;;;9.73;75.00
65175;BME280;51761;42.126;24.752;2023-03-03T12:40:24;99684.63;;;9.69;74.74
65175;BME280;51761;42.126;24.752;2023-03-03T12:56:06;99662.31;;;9.32;74.31
65175;BME280;51761;42.126;24.752;2023-03-03T13:07:14;99680.06;;;9.48;74.82
65175;BME280;51761;42.126;24.752;2023-03-03T13:10:15;99674.56;;;9.41;74.52
65175;BME280;51761;42.126;24.752;2023-03-03T13:12:59;99670.00;;;9.58;73.96
65175;BME280;51761;42.126;24.752;2023-03-03T13:15:32;99650.50;;;9.58;73.45
65175;BME280;51761;42.126;24.752;2023-03-03T13:20:50;99676.44;;;9.88;73.56
65175;BME280;51761;42.126;24.752;2023-03-03T13:23:32;99669.16;;;9.98;73.27
65175;BME280;51761;42.126;24.752;2023-03-03T13:28:55;99668.72;;;10.03;74.37
65175;BME280;51761;42.126;24.752;2023-03-03T13:31:40;99657.63;;;9.96;73.32
65175;BME280;51761;42.126;24.752;2023-03-03T13:37:04;99660.63;;;9.78;74.05
65175;BME280;51761;42.126;24.752;2023-03-03T13:39:42;99658.81;;;9.61;72.58
65175;BME280;51761;42.126;24.752;2023-03-03T13:42:18;99660.41;;;9.62;73.31
65175;BME280;51761;42.126;24.752;2023-03-03T13:44:48;99657.34;;;9.53;73.74
65175;BME280;51761;42.126;24.752;2023-03-03T13:47:25;99655.59;;;9.63;73.72
65175;BME280;51761;42.126;24.752;2023-03-03T13:52:58;99659.53;;;9.69;74.03
65175;BME280;51761;42.126;24.752;2023-03-03T13:58:58;99661.41;;;9.79;74.17
65175;BME280;51761;42.126;24.752;2023-03-03T14:01:56;99664.03;;;9.93;73.73
65175;BME280;51761;42.126;24.752;2023-03-03T14:07:13;99647.75;;;9.88;72.70
65175;BME280;51761;42.126;24.752;2023-03-03T14:12:46;99652.78;;;9.66;72.47
65175;BME280;51761;42.126;24.752;2023-03-03T14:15:28;99646.03;;;9.64;72.73
65175;BME280;51761;42.126;24.752;2023-03-03T14:18:04;99655.66;;;9.59;73.04
65175;BME280;51761;42.126;24.752;2023-03-03T14:20:34;99658.94;;;9.51;73.89
65175;BME280;51761;42.126;24.752;2023-03-03T14:26:09;99646.59;;;9.52;74.70
65175;BME280;51761;42.126;24.752;2023-03-03T14:28:44;99655.03;;;9.45;74.73
65175;BME280;51761;42.126;24.752;2023-03-03T14:31:21;99641.13;;;9.41;74.65
65175;BME280;51761;42.126;24.752;2023-03-03T14:37:24;99645.72;;;9.58;74.14
65175;BME280;51761;42.126;24.752;2023-03-03T14:43:04;99617.81;;;9.25;74.50
65175;BME280;51761;42.126;24.752;2023-03-03T14:45:40;99632.84;;;9.35;73.75
65175;BME280;51761;42.126;24.752;2023-03-03T14:48:20;99605.94;;;9.18;74.36
65175;BME280;51761;42.126;24.752;2023-03-03T14:53:37;99616.31;;;9.17;74.51
65175;BME280;51761;42.126;24.752;2023-03-03T14:58:46;99632.44;;;9.36;73.05
65175;BME280;51761;42.126;24.752;2023-03-03T15:01:33;99633.88;;;9.47;72.53
65175;BME280;51761;42.126;24.752;2023-03-03T15:04:22;99622.31;;;9.49;72.25
65175;BME280;51761;42.126;24.752;2023-03-03T15:06:49;99625.75;;;9.63;71.47
65175;BME280;51761;42.126;24.752;2023-03-03T15:09:33;99629.28;;;9.67;71.77
65175;BME280;51761;42.126;24.752;2023-03-03T15:17:38;99615.63;;;9.43;73.17
65175;BME280;51761;42.126;24.752;2023-03-03T15:26:01;99640.22;;;9.51;73.49
65175;BME280;51761;42.126;24.752;2023-03-03T15:34:43;99621.41;;;9.26;73.49
65175;BME280;51761;42.126;24.752;2023-03-03T15:37:36;99639.16;;;9.38;73.99
65175;BME280;51761;42.126;24.752;2023-03-03T16:00:31;99649.69;;;9.21;73.48
65175;BME280;51761;42.126;24.752;2023-03-03T16:03:18;99654.03;;;9.25;73.73
65175;BME280;51761;42.126;24.752;2023-03-03T16:05:53;99656.44;;;9.23;73.55
65175;BME280;51761;42.126;24.752;2023-03-03T16:14:22;99675.22;;;9.16;74.09
65175;BME280;51761;42.126;24.752;2023-03-03T16:17:26;99663.00;;;9.03;74.73
65175;BME280;51761;42.126;24.752;2023-03-03T16:22:48;99690.72;;;9.17;74.42
65175;BME280;51761;42.126;24.752;2023-03-03T16:25:33;99692.38;;;9.11;74.67
65175;BME280;51761;42.126;24.752;2023-03-03T16:44:20;99688.53;;;8.94;75.29
65175;BME280;51761;42.126;24.752;2023-03-03T16:47:01;99688.53;;;8.94;75.62
65175;BME280;51761;42.126;24.752;2023-03-03T16:49:54;99699.38;;;8.82;76.47
65175;BME280;51761;42.126;24.752;2023-03-03T16:52:40;99685.97;;;8.66;76.42
65175;BME280;51761;42.126;24.752;2023-03-03T16:55:17;99701.47;;;8.67;77.33
65175;BME280;51761;42.126;24.752;2023-03-03T17:03:37;99708.19;;;8.73;77.20
65175;BME280;51761;42.126;24.752;2023-03-03T17:06:22;99708.31;;;8.59;78.47
65175;BME280;51761;42.126;24.752;2023-03-03T17:15:15;99702.28;;;8.68;78.19
65175;BME280;51761;42.126;24.752;2023-03-03T17:17:49;99710.25;;;8.66;79.06
65175;BME280;51761;42.126;24.752;2023-03-03T17:40:50;99732.53;;;8.62;78.66
65175;BME280;51761;42.126;24.752;2023-03-03T17:43:22;99744.03;;;8.68;79.15
65175;BME280;51761;42.126;24.752;2023-03-03T17:45:53;99727.84;;;8.52;79.61
65175;BME280;51761;42.126;24.752;2023-03-03T17:54:09;99747.66;;;8.58;80.33
65175;BME280;51761;42.126;24.752;2023-03-03T17:57:10;99746.91;;;8.54;80.52
65175;BME280;51761;42.126;24.752;2023-03-03T18:02:40;99744.97;;;8.44;81.58
65175;BME280;51761;42.126;24.752;2023-03-03T18:05:17;99742.16;;;8.47;81.46
65175;BME280;51761;42.126;24.752;2023-03-03T18:16:11;99758.19;;;8.15;83.44
65175;BME280;51761;42.126;24.752;2023-03-03T18:26:50;99774.13;;;8.01;84.59
65175;BME280;51761;42.126;24.752;2023-03-03T18:32:02;99747.19;;;7.84;85.26
65175;BME280;51761;42.126;24.752;2023-03-03T18:34:29;99769.38;;;8.01;85.09
65175;BME280;51761;42.126;24.752;2023-03-03T18:39:47;99777.31;;;8.06;84.59
65175;BME280;51761;42.126;24.752;2023-03-03T18:44:50;99758.28;;;7.94;85.08
65175;BME280;51761;42.126;24.752;2023-03-03T18:47:16;99786.06;;;7.98;85.39
65175;BME280;51761;42.126;24.752;2023-03-03T18:55:51;99795.63;;;7.86;86.54
65175;BME280;51761;42.126;24.752;2023-03-03T19:03:55;99781.72;;;7.86;86.54
65175;BME280;51761;42.126;24.752;2023-03-03T19:09:19;99761.13;;;7.67;86.59
65175;BME280;51761;42.126;24.752;2023-03-03T19:12:08;99790.06;;;7.76;86.61